首页
METAR-TAF:

METAR-TAF

机场 :

塞舌尔国际机场

维多利亚, 马埃岛, 塞舌尔

纬度: 04-40S, 经度: 055-31E, 海拔: 3米

当前天气观测

该预报发布于49分钟前的00:00 UTC
风速7节,风向东南,在南转西南之间变化
温度 26°C
湿度 84%
气压 1012 hPa

METAR: FSIA 210000Z AUTO 14007KT 100V200 //// R13///// // FEW016/// 26/23 Q1012

时间: 04:49 (00:49 UTC)

预报

该预报发布于1小时和49分钟前的23:00 UTC
预报有效从21日的 00点(UTC)到 21日的 24点(UTC)
风速8节,风向南转南东
能见度10公里或以上
散云层高于2400英尺
成为
从 21日的 03点(UTC)到 21日的 05点(UTC)
风速18节,风向南转南东
短暂存在
从 21日的 08点(UTC)到 21日的 12点(UTC)
多云层高于1600英尺
小阵雨

TAF: FSIA 202300Z 2100/2124 16008KT 9999 SCT024 BECMG 2103/2105 15018KT TEMPO 2108/2112 -SHRA BKN016

超过4000个机场的气象观测和天气预报(METAR&TAF报告)。

可查询的气象台以黄色和红色小点在地图上表示。

将鼠标移到小点上方,可查看气象台名称。

然后点击查看天气观测和预报。

如需切换地图:点击带黑十字的绿色按钮放大地图;点击带横线的绿色按钮缩小地图;或者点击绿色箭头查看邻近地区的地图。


METAR-TAF: